createdAt,value
2017-10-23T00:02:24.471Z,9.80
2017-10-23T00:04:51.975Z,9.80
2017-10-23T00:07:20.196Z,9.80
2017-10-23T00:09:47.675Z,9.80
2017-10-23T00:12:15.130Z,9.90
2017-10-23T00:14:43.379Z,9.80
2017-10-23T00:17:10.847Z,9.80
2017-10-23T00:19:38.299Z,9.80
2017-10-23T00:22:05.759Z,9.80
2017-10-23T00:24:33.231Z,9.80
2017-10-23T00:27:02.191Z,9.80
2017-10-23T00:29:29.656Z,9.80
2017-10-23T00:31:57.128Z,9.80
2017-10-23T00:34:26.095Z,9.90
2017-10-23T00:36:53.588Z,9.90
2017-10-23T00:39:21.050Z,9.80
2017-10-23T00:41:49.278Z,9.90
2017-10-23T00:44:16.748Z,9.90
2017-10-23T00:46:44.224Z,9.90
2017-10-23T00:49:11.729Z,9.90
2017-10-23T00:51:39.191Z,9.90
2017-10-23T00:54:06.656Z,9.90
2017-10-23T00:56:34.202Z,9.90
2017-10-23T00:59:01.667Z,9.90
2017-10-23T01:01:29.140Z,9.90
2017-10-23T01:03:56.600Z,10.00
2017-10-23T01:06:24.075Z,10.00
2017-10-23T01:08:51.553Z,10.00
2017-10-23T01:11:19.781Z,10.00
2017-10-23T01:13:47.267Z,10.00
2017-10-23T01:16:15.507Z,9.90
2017-10-23T01:18:42.963Z,9.90
2017-10-23T01:21:10.424Z,9.90
2017-10-23T01:23:37.899Z,9.90
2017-10-23T01:26:05.373Z,9.80
2017-10-23T01:28:32.844Z,9.70
2017-10-23T01:31:01.059Z,9.50
2017-10-23T01:33:28.523Z,9.50
2017-10-23T01:35:56.002Z,9.30
2017-10-23T01:38:23.455Z,9.20
2017-10-23T01:40:50.934Z,9.10
2017-10-23T01:43:18.387Z,9.10
2017-10-23T01:45:46.624Z,9.10
2017-10-23T01:48:14.091Z,9.10
2017-10-23T01:50:41.559Z,9.20
2017-10-23T01:53:10.625Z,9.20
2017-10-23T01:55:37.263Z,9.20
2017-10-23T01:58:04.715Z,9.20
2017-10-23T02:00:32.188Z,9.20
2017-10-23T02:02:59.647Z,9.20
2017-10-23T02:05:27.115Z,9.20
2017-10-23T02:07:55.344Z,9.30
2017-10-23T02:10:23.157Z,9.30
2017-10-23T02:12:50.619Z,9.30
2017-10-23T02:15:18.087Z,9.30
2017-10-23T02:17:46.327Z,9.40
2017-10-23T02:20:13.787Z,9.40
2017-10-23T02:22:41.271Z,9.40
2017-10-23T02:25:09.503Z,9.50
2017-10-23T02:27:36.975Z,9.50
2017-10-23T02:30:04.465Z,9.50
2017-10-23T02:32:32.680Z,9.60
2017-10-23T02:35:00.160Z,9.60
2017-10-23T02:37:27.615Z,9.50
2017-10-23T02:39:55.074Z,9.50
2017-10-23T02:42:22.550Z,9.60
2017-10-23T02:44:50.000Z,9.60
2017-10-23T02:47:17.488Z,9.60
2017-10-23T02:49:45.711Z,9.60
2017-10-23T02:52:13.184Z,9.60
2017-10-23T02:54:40.654Z,9.60
2017-10-23T02:57:08.107Z,9.60
2017-10-23T02:59:35.609Z,9.60
2017-10-23T03:02:03.076Z,9.60
2017-10-23T03:04:30.535Z,9.60
2017-10-23T03:06:58.015Z,9.70
2017-10-23T03:09:25.479Z,9.70
2017-10-23T03:11:52.963Z,9.70
2017-10-23T03:14:21.271Z,9.70
2017-10-23T03:16:48.724Z,9.60
2017-10-23T03:19:16.188Z,9.70
2017-10-23T03:21:43.651Z,9.70
2017-10-23T03:24:11.115Z,9.70
2017-10-23T03:26:38.575Z,9.80
2017-10-23T03:29:06.046Z,9.80
2017-10-23T03:31:33.514Z,9.80
2017-10-23T03:34:00.982Z,9.80
2017-10-23T03:36:29.228Z,9.70
2017-10-23T03:38:56.705Z,9.70
2017-10-23T03:41:24.134Z,9.80
2017-10-23T03:43:51.611Z,9.80
2017-10-23T03:46:19.067Z,9.80
2017-10-23T03:48:46.544Z,9.80
2017-10-23T03:51:14.763Z,9.80
2017-10-23T03:53:42.228Z,9.80
2017-10-23T03:56:09.696Z,9.80
2017-10-23T03:58:37.150Z,9.80
2017-10-23T04:01:04.623Z,9.80
2017-10-23T04:03:32.849Z,9.80
2017-10-23T04:06:00.328Z,9.80
2017-10-23T04:08:27.795Z,9.80
2017-10-23T04:10:55.250Z,9.80
2017-10-23T04:13:22.727Z,9.80
2017-10-23T04:15:51.687Z,9.80
2017-10-23T04:18:19.147Z,9.80
2017-10-23T04:20:46.615Z,9.80
2017-10-23T04:23:14.075Z,9.80
2017-10-23T04:25:41.551Z,9.80
2017-10-23T04:28:09.013Z,9.70
2017-10-23T04:30:37.259Z,9.80
2017-10-23T04:33:04.734Z,9.70
2017-10-23T04:35:32.965Z,9.80
2017-10-23T04:38:00.455Z,9.80
2017-10-23T04:40:27.911Z,9.80
2017-10-23T04:42:55.371Z,9.80
2017-10-23T04:45:22.851Z,9.80
2017-10-23T04:47:51.075Z,9.80
2017-10-23T04:50:18.539Z,9.80
2017-10-23T04:52:45.995Z,9.80
2017-10-23T04:55:13.466Z,9.80
2017-10-23T04:57:40.947Z,9.90
2017-10-23T05:00:09.173Z,9.90
2017-10-23T05:02:36.644Z,9.80
2017-10-23T05:05:04.102Z,9.80
2017-10-23T05:07:31.605Z,9.90
2017-10-23T05:09:59.819Z,9.90
2017-10-23T05:12:27.277Z,9.90
2017-10-23T05:14:54.742Z,9.90
2017-10-23T05:17:22.199Z,9.90
2017-10-23T05:19:49.676Z,9.90
2017-10-23T05:22:17.139Z,9.90
2017-10-23T05:24:44.601Z,9.90
2017-10-23T05:27:12.071Z,9.90
2017-10-23T05:29:40.312Z,9.90
2017-10-23T05:32:07.775Z,9.90
2017-10-23T05:34:36.006Z,9.90
2017-10-23T05:37:03.802Z,9.90
2017-10-23T05:39:31.256Z,9.90
2017-10-23T05:41:58.718Z,10.00
2017-10-23T05:44:26.195Z,10.00
2017-10-23T05:46:54.512Z,10.00
2017-10-23T05:49:21.995Z,10.00
2017-10-23T05:51:49.455Z,10.00
2017-10-23T05:54:16.938Z,10.00
2017-10-23T05:56:44.398Z,10.00
2017-10-23T05:59:11.867Z,10.00
2017-10-23T06:01:40.110Z,10.10
2017-10-23T06:04:07.575Z,10.00
2017-10-23T06:06:35.041Z,10.10
2017-10-23T06:09:03.288Z,10.10
2017-10-23T06:11:30.792Z,10.00
2017-10-23T06:13:59.032Z,10.10
2017-10-23T06:16:26.489Z,10.00
2017-10-23T06:18:53.970Z,10.10
2017-10-23T06:21:22.199Z,10.10
2017-10-23T06:23:49.681Z,10.00
2017-10-23T06:26:17.140Z,10.10
2017-10-23T06:28:44.618Z,10.10
2017-10-23T06:31:12.866Z,10.10
2017-10-23T06:33:41.107Z,10.10
2017-10-23T06:36:08.568Z,10.00
2017-10-23T06:38:36.044Z,10.10
2017-10-23T06:41:03.520Z,10.10
2017-10-23T06:43:31.008Z,10.10
2017-10-23T06:45:58.467Z,10.10
2017-10-23T06:48:25.953Z,10.10
2017-10-23T06:50:53.416Z,10.10
2017-10-23T06:53:20.883Z,10.10
2017-10-23T06:55:48.351Z,10.10
2017-10-23T06:58:17.323Z,10.20
2017-10-23T07:00:44.804Z,10.20
2017-10-23T07:03:13.038Z,10.20
2017-10-23T07:05:40.503Z,10.20
2017-10-23T07:08:07.971Z,10.20
2017-10-23T07:10:35.445Z,10.10
2017-10-23T07:13:02.919Z,10.10
2017-10-23T07:15:31.151Z,10.30
2017-10-23T07:17:58.610Z,10.30
2017-10-23T07:20:26.104Z,10.40
2017-10-23T07:22:54.332Z,10.40
2017-10-23T07:25:21.803Z,10.40
2017-10-23T07:27:49.271Z,10.40
2017-10-23T07:30:18.251Z,10.40
2017-10-23T07:32:45.732Z,10.40
2017-10-23T07:35:13.204Z,10.40
2017-10-23T07:37:41.452Z,10.30
2017-10-23T07:40:08.912Z,10.30
2017-10-23T07:42:37.138Z,10.30
2017-10-23T07:45:04.614Z,10.30
2017-10-23T07:47:32.083Z,10.30
2017-10-23T07:49:59.536Z,10.30
2017-10-23T07:52:27.011Z,10.30
2017-10-23T07:54:54.483Z,10.50
2017-10-23T07:57:22.718Z,10.40
2017-10-23T07:59:50.187Z,10.40
2017-10-23T08:02:17.644Z,10.40
2017-10-23T08:04:45.136Z,10.50
2017-10-23T08:07:13.351Z,10.80
2017-10-23T08:09:40.831Z,10.80
2017-10-23T08:12:08.300Z,10.80
2017-10-23T08:14:35.763Z,10.80
2017-10-23T08:17:03.240Z,10.90
2017-10-23T08:19:31.463Z,10.90
2017-10-23T08:21:58.964Z,10.80
2017-10-23T08:24:27.191Z,11.30
2017-10-23T08:26:54.659Z,11.20
2017-10-23T08:29:22.123Z,11.40
2017-10-23T08:31:49.595Z,11.50
2017-10-23T08:34:17.056Z,11.70
2017-10-23T08:36:45.295Z,12.20
2017-10-23T08:39:12.767Z,12.20
2017-10-23T08:41:40.244Z,12.30
2017-10-23T08:44:08.472Z,11.80
2017-10-23T08:46:35.959Z,11.80
2017-10-23T08:49:03.407Z,11.70
2017-10-23T08:51:30.894Z,11.90
2017-10-23T08:53:59.112Z,12.80
2017-10-23T08:56:26.583Z,12.80
2017-10-23T08:58:54.067Z,12.80
2017-10-23T09:01:21.532Z,13.00
2017-10-23T09:03:49.784Z,13.20
2017-10-23T09:06:17.243Z,13.20
2017-10-23T09:08:44.716Z,13.00
2017-10-23T09:11:12.171Z,13.00
2017-10-23T09:13:39.662Z,13.00
2017-10-23T09:16:07.135Z,13.10
2017-10-23T09:18:34.594Z,13.10
2017-10-23T09:21:02.076Z,13.20
2017-10-23T09:23:29.535Z,13.10
2017-10-23T09:25:57.029Z,13.10
2017-10-23T09:28:25.271Z,13.30
2017-10-23T09:30:53.495Z,13.20
2017-10-23T09:33:20.992Z,13.20
2017-10-23T09:35:48.464Z,13.00
2017-10-23T09:38:15.939Z,12.60
2017-10-23T09:40:44.178Z,12.50
2017-10-23T09:43:11.710Z,12.50
2017-10-23T09:45:39.163Z,12.70
2017-10-23T09:48:06.632Z,12.90
2017-10-23T09:50:34.111Z,13.00
2017-10-23T09:53:01.567Z,12.80
2017-10-23T09:55:29.058Z,12.80
2017-10-23T09:57:57.288Z,12.50
2017-10-23T10:00:24.754Z,12.50
2017-10-23T10:02:52.234Z,12.40
2017-10-23T10:05:19.704Z,12.40
2017-10-23T10:07:47.947Z,12.30
2017-10-23T10:10:15.413Z,12.30
2017-10-23T10:12:42.884Z,12.30
2017-10-23T10:15:11.128Z,12.20
2017-10-23T10:17:38.587Z,12.10
2017-10-23T10:20:06.036Z,12.20
2017-10-23T10:22:33.512Z,12.20
2017-10-23T10:25:00.987Z,12.30
2017-10-23T10:27:29.235Z,12.80
2017-10-23T10:29:56.712Z,12.80
2017-10-23T10:32:24.192Z,13.10
2017-10-23T10:34:52.416Z,14.40
2017-10-23T10:37:19.869Z,14.40
2017-10-23T10:39:47.344Z,15.10
2017-10-23T10:42:14.807Z,15.00
2017-10-23T10:44:42.289Z,14.90
2017-10-23T10:47:10.504Z,16.70
2017-10-23T10:49:37.975Z,16.70
2017-10-23T10:52:05.440Z,16.00
2017-10-23T10:54:32.920Z,15.00
2017-10-23T10:57:01.168Z,14.50
2017-10-23T10:59:28.639Z,14.50
2017-10-23T11:01:56.112Z,14.50
2017-10-23T11:04:24.334Z,14.80
2017-10-23T11:06:52.771Z,14.80
2017-10-23T11:09:21.007Z,15.40
2017-10-23T11:11:48.486Z,15.40
2017-10-23T11:14:16.719Z,14.10
2017-10-23T11:16:44.180Z,14.00
2017-10-23T11:19:11.652Z,13.80
2017-10-23T11:21:39.123Z,13.60
2017-10-23T11:24:06.593Z,13.30
2017-10-23T11:26:34.080Z,13.30
2017-10-23T11:29:01.546Z,13.10
2017-10-23T11:31:29.000Z,13.00
2017-10-23T11:33:56.473Z,13.00
2017-10-23T11:36:23.955Z,13.20
2017-10-23T11:38:51.430Z,13.50
2017-10-23T11:41:19.650Z,14.30
2017-10-23T11:43:47.121Z,14.30
2017-10-23T11:46:14.599Z,14.30
2017-10-23T11:48:42.075Z,14.10
2017-10-23T11:51:10.325Z,13.60
2017-10-23T11:53:37.792Z,13.50
2017-10-23T11:56:05.263Z,13.40
2017-10-23T11:58:33.507Z,13.50
2017-10-23T12:01:00.979Z,13.50
2017-10-23T12:03:28.456Z,13.50
2017-10-23T12:05:56.679Z,13.30
2017-10-23T12:08:24.143Z,13.30
2017-10-23T12:10:51.618Z,13.40
2017-10-23T12:13:19.099Z,13.50
2017-10-23T12:15:47.351Z,13.70
2017-10-23T12:18:14.820Z,13.60
2017-10-23T12:20:42.319Z,13.60
2017-10-23T12:23:09.790Z,13.70
2017-10-23T12:25:37.255Z,13.70
2017-10-23T12:28:04.736Z,13.70
2017-10-23T12:30:32.199Z,13.60
2017-10-23T12:32:59.671Z,13.60
2017-10-23T12:35:27.900Z,13.50
2017-10-23T12:37:55.367Z,13.50
2017-10-23T12:40:22.855Z,13.50
2017-10-23T12:42:51.080Z,13.40
2017-10-23T12:45:18.555Z,13.40
2017-10-23T12:47:46.010Z,13.50
2017-10-23T12:50:13.488Z,13.50
2017-10-23T12:52:40.959Z,13.60
2017-10-23T12:55:09.209Z,13.60
2017-10-23T12:57:36.684Z,13.60
2017-10-23T13:00:04.910Z,13.90
2017-10-23T13:02:32.387Z,13.90
2017-10-23T13:04:59.851Z,14.10
2017-10-23T13:07:28.088Z,16.60
2017-10-23T13:09:55.640Z,16.60
2017-10-23T13:12:23.092Z,17.80
2017-10-23T13:14:50.575Z,18.30
2017-10-23T13:17:18.041Z,17.90
2017-10-23T13:19:45.523Z,17.50
2017-10-23T13:22:13.755Z,17.00
2017-10-23T13:24:41.215Z,17.00
2017-10-23T13:27:08.687Z,17.00
2017-10-23T13:29:36.150Z,17.00
2017-10-23T13:32:03.635Z,17.30
2017-10-23T13:34:31.872Z,16.20
2017-10-23T13:36:59.365Z,16.20
2017-10-23T13:39:27.816Z,16.50
2017-10-23T13:41:55.268Z,16.50
2017-10-23T13:44:23.162Z,16.60
2017-10-23T13:46:50.610Z,16.60
2017-10-23T13:49:18.840Z,16.00
2017-10-23T13:51:46.314Z,16.00
2017-10-23T13:54:13.801Z,15.80
2017-10-23T13:56:41.259Z,15.50
2017-10-23T13:59:09.491Z,15.10
2017-10-23T14:01:36.964Z,15.10
2017-10-23T14:04:04.454Z,14.80
2017-10-23T14:06:32.708Z,14.70
2017-10-23T14:09:00.180Z,14.70
2017-10-23T14:11:28.409Z,15.40
2017-10-23T14:13:55.952Z,15.40
2017-10-23T14:16:23.412Z,15.40
2017-10-23T14:18:50.897Z,15.50
2017-10-23T14:21:18.362Z,15.60
2017-10-23T14:23:46.588Z,15.80
2017-10-23T14:26:14.063Z,15.80
2017-10-23T14:28:41.544Z,15.80
2017-10-23T14:31:09.004Z,15.80
2017-10-23T14:33:36.463Z,15.70
2017-10-23T14:36:03.938Z,15.60
2017-10-23T14:38:32.174Z,15.10
2017-10-23T14:40:59.647Z,15.10
2017-10-23T14:43:27.106Z,14.90
2017-10-23T14:45:54.587Z,14.90
2017-10-23T14:48:22.830Z,14.80
2017-10-23T14:50:50.315Z,14.80
2017-10-23T14:53:18.562Z,14.50
2017-10-23T14:55:46.019Z,14.50
2017-10-23T14:58:13.497Z,14.50
2017-10-23T15:00:40.960Z,14.40
2017-10-23T15:03:09.203Z,14.50
2017-10-23T15:05:36.840Z,14.50
2017-10-23T15:08:04.302Z,14.50
2017-10-23T15:10:31.763Z,14.50
2017-10-23T15:12:59.573Z,14.40
2017-10-23T15:15:27.812Z,14.30
2017-10-23T15:17:55.267Z,14.30
2017-10-23T15:20:22.756Z,14.20
2017-10-23T15:22:50.227Z,14.20
2017-10-23T15:25:18.463Z,13.90
2017-10-23T15:27:45.923Z,13.90
2017-10-23T15:30:13.404Z,13.80
2017-10-23T15:32:41.628Z,13.70
2017-10-23T15:35:09.090Z,13.70
2017-10-23T15:37:36.572Z,13.60
2017-10-23T15:40:04.057Z,13.70
2017-10-23T15:42:32.288Z,13.60
2017-10-23T15:44:59.772Z,13.60
2017-10-23T15:47:27.227Z,13.60
2017-10-23T15:49:54.692Z,13.60
2017-10-23T15:52:22.932Z,13.60
2017-10-23T15:54:50.406Z,13.60
2017-10-23T15:57:17.879Z,13.60
2017-10-23T15:59:46.114Z,13.50
2017-10-23T16:02:13.606Z,13.50
2017-10-23T16:04:41.835Z,13.30
2017-10-23T16:07:09.292Z,13.30
2017-10-23T16:09:36.776Z,13.40
2017-10-23T16:12:04.229Z,13.30
2017-10-23T16:14:31.699Z,13.40
2017-10-23T16:16:59.179Z,13.30
2017-10-23T16:19:27.411Z,13.20
2017-10-23T16:21:54.879Z,13.20
2017-10-23T16:24:22.354Z,13.10
2017-10-23T16:26:50.594Z,13.00
2017-10-23T16:29:18.071Z,13.00
2017-10-23T16:31:45.535Z,12.90
2017-10-23T16:34:13.016Z,13.00
2017-10-23T16:36:41.242Z,12.90
2017-10-23T16:39:08.713Z,12.90
2017-10-23T16:41:36.199Z,12.90
2017-10-23T16:44:04.432Z,12.80
2017-10-23T16:46:31.895Z,12.80
2017-10-23T16:48:59.366Z,12.80
2017-10-23T16:51:26.834Z,12.80
2017-10-23T16:53:55.087Z,12.80
2017-10-23T16:56:22.579Z,12.80
2017-10-23T16:58:50.037Z,12.70
2017-10-23T17:01:18.287Z,12.70
2017-10-23T17:03:46.535Z,12.60
2017-10-23T17:06:14.004Z,12.60
2017-10-23T17:08:41.479Z,12.50
2017-10-23T17:11:09.727Z,12.30
2017-10-23T17:13:37.199Z,12.30
2017-10-23T17:16:04.688Z,12.20
2017-10-23T17:18:32.915Z,12.30
2017-10-23T17:21:00.406Z,12.20
2017-10-23T17:23:27.891Z,12.20
2017-10-23T17:25:55.371Z,12.10
2017-10-23T17:28:22.831Z,12.10
2017-10-23T17:30:50.312Z,12.10
2017-10-23T17:33:17.774Z,12.10
2017-10-23T17:35:45.267Z,12.10
2017-10-23T17:38:12.721Z,12.20
2017-10-23T17:40:40.203Z,12.20
2017-10-23T17:43:07.679Z,12.20
2017-10-23T17:45:35.146Z,12.20
2017-10-23T17:48:02.622Z,12.30
2017-10-23T17:50:30.877Z,12.30
2017-10-23T17:52:58.923Z,12.30
2017-10-23T17:55:26.375Z,12.20
2017-10-23T17:57:53.846Z,12.20
2017-10-23T18:00:21.328Z,12.20
2017-10-23T18:02:48.793Z,12.20
2017-10-23T18:05:16.276Z,12.20
2017-10-23T18:07:43.751Z,12.10
2017-10-23T18:10:11.234Z,12.10
2017-10-23T18:12:38.723Z,12.00
2017-10-23T18:15:06.179Z,12.00
2017-10-23T18:17:34.440Z,11.80
2017-10-23T18:20:01.898Z,11.80
2017-10-23T18:22:29.366Z,11.70
2017-10-23T18:24:57.610Z,11.60
2017-10-23T18:27:25.072Z,11.60
2017-10-23T18:29:52.588Z,11.60
2017-10-23T18:32:20.051Z,11.50
2017-10-23T18:34:47.515Z,11.40
2017-10-23T18:37:14.997Z,11.40
2017-10-23T18:39:42.471Z,11.50
2017-10-23T18:42:09.968Z,11.50
2017-10-23T18:44:37.442Z,11.60
2017-10-23T18:47:04.915Z,11.70
2017-10-23T18:49:32.387Z,11.70
2017-10-23T18:51:59.851Z,11.80
2017-10-23T18:54:27.331Z,11.90
2017-10-23T18:56:55.566Z,12.00
2017-10-23T18:59:23.040Z,11.90
2017-10-23T19:01:52.023Z,11.90
2017-10-23T19:04:19.542Z,11.90
2017-10-23T19:06:47.003Z,12.00
2017-10-23T19:09:14.504Z,12.00
2017-10-23T19:11:41.996Z,12.00
2017-10-23T19:14:09.467Z,12.10
2017-10-23T19:16:36.943Z,12.10
2017-10-23T19:19:04.429Z,12.00
2017-10-23T19:21:31.920Z,12.10
2017-10-23T19:24:00.171Z,12.10
2017-10-23T19:26:28.400Z,12.10
2017-10-23T19:28:55.850Z,12.10
2017-10-23T19:31:23.355Z,12.10
2017-10-23T19:33:50.823Z,12.20
2017-10-23T19:36:18.305Z,12.20
2017-10-23T19:38:45.763Z,12.20
2017-10-23T19:41:13.254Z,12.20
2017-10-23T19:43:40.715Z,12.20
2017-10-23T19:46:08.181Z,12.20
2017-10-23T19:48:35.668Z,12.20
2017-10-23T19:51:03.888Z,12.20
2017-10-23T19:53:31.383Z,12.20
2017-10-23T19:55:58.865Z,12.30
2017-10-23T19:58:26.336Z,12.30
2017-10-23T20:00:53.821Z,12.30
2017-10-23T20:03:21.296Z,12.40
2017-10-23T20:05:50.286Z,12.40
2017-10-23T20:08:17.756Z,12.40
2017-10-23T20:10:45.236Z,12.40
2017-10-23T20:13:13.483Z,12.40
2017-10-23T20:15:40.975Z,12.40
2017-10-23T20:18:09.232Z,12.40
2017-10-23T20:20:37.483Z,12.50
2017-10-23T20:23:04.943Z,12.50
2017-10-23T20:25:33.196Z,12.50
2017-10-23T20:28:00.667Z,12.50
2017-10-23T20:30:28.128Z,12.50
2017-10-23T20:32:55.620Z,12.50
2017-10-23T20:35:23.096Z,12.50
2017-10-23T20:37:50.560Z,12.50
2017-10-23T20:40:18.039Z,12.50
2017-10-23T20:42:45.511Z,12.50
2017-10-23T20:45:13.000Z,12.40
2017-10-23T20:47:41.239Z,12.50
2017-10-23T20:50:09.488Z,12.50
2017-10-23T20:52:36.963Z,12.50
2017-10-23T20:55:04.435Z,12.50
2017-10-23T20:57:31.916Z,12.50
2017-10-23T21:00:00.153Z,12.50
2017-10-23T21:02:27.621Z,12.50
2017-10-23T21:04:55.112Z,12.50
2017-10-23T21:07:23.342Z,12.50
2017-10-23T21:09:50.815Z,12.50
2017-10-23T21:12:18.317Z,12.50
2017-10-23T21:14:45.800Z,12.50
2017-10-23T21:17:13.293Z,12.50
2017-10-23T21:19:40.764Z,12.60
2017-10-23T21:22:09.005Z,12.50
2017-10-23T21:24:36.479Z,12.50
2017-10-23T21:27:03.943Z,12.50
2017-10-23T21:29:32.200Z,12.50
2017-10-23T21:31:59.664Z,12.40
2017-10-23T21:34:27.129Z,12.50
2017-10-23T21:36:54.608Z,12.50
2017-10-23T21:39:22.079Z,12.50
2017-10-23T21:41:49.553Z,12.50
2017-10-23T21:44:17.028Z,12.50
2017-10-23T21:46:56.334Z,12.50
2017-10-23T21:49:23.798Z,12.50
2017-10-23T21:51:51.261Z,12.50
2017-10-23T21:54:18.745Z,12.50
2017-10-23T21:56:46.211Z,12.50
2017-10-23T21:59:13.676Z,12.60
2017-10-23T22:01:41.928Z,12.60
2017-10-23T22:04:09.396Z,12.60
2017-10-23T22:06:37.718Z,12.60
2017-10-23T22:09:05.179Z,12.50
2017-10-23T22:11:32.640Z,12.60
2017-10-23T22:14:00.114Z,12.60
2017-10-23T22:16:27.576Z,12.60
2017-10-23T22:18:55.060Z,12.60
2017-10-23T22:21:22.523Z,12.60
2017-10-23T22:23:50.759Z,12.60
2017-10-23T22:26:18.236Z,12.60
2017-10-23T22:28:45.698Z,12.60
2017-10-23T22:31:13.172Z,12.60
2017-10-23T22:33:41.408Z,12.70
2017-10-23T22:36:08.868Z,12.60
2017-10-23T22:38:36.323Z,12.70
2017-10-23T22:41:03.811Z,12.70
2017-10-23T22:43:32.023Z,12.70
2017-10-23T22:45:59.505Z,12.60
2017-10-23T22:48:26.962Z,12.70
2017-10-23T22:50:54.420Z,12.70
2017-10-23T22:53:21.891Z,12.70
2017-10-23T22:55:49.380Z,12.70
2017-10-23T22:58:17.627Z,12.70
2017-10-23T23:00:45.086Z,12.70
2017-10-23T23:03:12.558Z,12.80
2017-10-23T23:05:40.803Z,12.80
2017-10-23T23:08:08.271Z,12.70
2017-10-23T23:10:35.728Z,12.70
2017-10-23T23:13:03.211Z,12.80
2017-10-23T23:15:31.435Z,12.80
2017-10-23T23:17:58.910Z,12.70
2017-10-23T23:20:26.383Z,12.70
2017-10-23T23:22:54.628Z,12.80
2017-10-23T23:25:22.083Z,12.80
2017-10-23T23:27:49.553Z,12.80
2017-10-23T23:30:17.027Z,12.80
2017-10-23T23:32:45.251Z,12.90
2017-10-23T23:35:12.708Z,12.80
2017-10-23T23:37:40.188Z,12.90
2017-10-23T23:40:07.666Z,12.90
2017-10-23T23:42:35.126Z,12.90
2017-10-23T23:45:03.367Z,12.90
2017-10-23T23:47:30.838Z,12.90
2017-10-23T23:49:59.060Z,12.90
2017-10-23T23:52:26.534Z,12.90
2017-10-23T23:54:53.991Z,12.90
2017-10-23T23:57:21.447Z,12.90
2017-10-23T23:59:48.926Z,13.00
